Time;durP1;ratioP1;P1;durP2;ratioP2;P2;SDS_P1;SDS_P2;PMS_P1;PMS_P2;Temp;Humidity;BMP_temperature;BMP_pressure;BME280_temperature;BME280_humidity;BME280_pressure;Samples;Min_cycle;Max_cycle;Signal;HPM_P1;HPM_P2
2023/12/15 00:00:22;;;;;;;32.87;21.03;;;;;;;;;;6305095;22;20232;-82
2023/12/15 00:02:49;;;;;;;34.93;21.97;;;;;;;;;;6305523;22;20215;-81
2023/12/15 00:05:18;;;;;;;34.10;22.47;;;;;;;;;;6304464;22;20220;-81
2023/12/15 00:07:45;;;;;;;35.47;23.00;;;;;;;;;;6305474;22;20249;-81
2023/12/15 00:10:12;;;;;;;39.13;23.57;;;;;;;;;;6305905;22;20169;-81
2023/12/15 00:12:39;;;;;;;31.93;21.23;;;;;;;;;;6305489;22;20170;-81
2023/12/15 00:15:07;;;;;;;33.27;22.13;;;;;;;;;;6305064;22;20567;-81
2023/12/15 00:17:34;;;;;;;37.03;23.43;;;;;;;;;;6304600;22;20216;-81
2023/12/15 00:20:02;;;;;;;34.93;22.03;;;;;;;;;;6305400;22;20169;-81
2023/12/15 00:22:30;;;;;;;35.60;23.17;;;;;;;;;;6304601;22;20597;-81
2023/12/15 00:24:57;;;;;;;34.93;22.40;;;;;;;;;;6305420;22;20232;-81
2023/12/15 00:27:25;;;;;;;36.17;22.90;;;;;;;;;;6305412;22;20200;-81
2023/12/15 00:29:52;;;;;;;35.00;21.83;;;;;;;;;;6305792;22;20670;-81
2023/12/15 00:32:19;;;;;;;33.40;21.33;;;;;;;;;;6304878;22;20231;-81
2023/12/15 00:34:46;;;;;;;29.63;19.63;;;;;;;;;;6304990;22;20170;-81
2023/12/15 00:37:13;;;;;;;25.13;18.00;;;;;;;;;;6305470;22;20220;-81
2023/12/15 00:39:42;;;;;;;24.50;16.60;;;;;;;;;;6305256;22;20185;-81
2023/12/15 00:42:09;;;;;;;22.57;15.13;;;;;;;;;;6305584;22;20169;-81
2023/12/15 00:44:36;;;;;;;22.73;14.33;;;;;;;;;;6305763;22;20232;-80
2023/12/15 00:47:04;;;;;;;17.90;12.77;;;;;;;;;;6304651;22;20257;-81
2023/12/15 00:49:31;;;;;;;16.20;11.17;;;;;;;;;;6305486;22;20170;-81
2023/12/15 00:51:58;;;;;;;13.90;10.27;;;;;;;;;;6304541;22;20678;-80
2023/12/15 00:54:25;;;;;;;15.50;9.73;;;;;;;;;;6304968;22;20206;-81
2023/12/15 00:56:54;;;;;;;13.80;9.07;;;;;;;;;;6304870;22;20219;-80
2023/12/15 00:59:21;;;;;;;10.93;7.23;;;;;;;;;;6304887;22;20298;-80
2023/12/15 01:01:48;;;;;;;10.43;6.30;;;;;;;;;;6305188;22;20169;-81
2023/12/15 01:04:15;;;;;;;8.80;6.30;;;;;;;;;;6305134;22;20228;-81
2023/12/15 01:06:42;;;;;;;7.97;5.50;;;;;;;;;;6305250;22;20205;-81
2023/12/15 01:09:09;;;;;;;7.13;4.60;;;;;;;;;;6305484;22;20249;-81
2023/12/15 01:11:36;;;;;;;7.33;3.60;;;;;;;;;;6305088;22;20249;-81
2023/12/15 01:14:05;;;;;;;6.57;2.97;;;;;;;;;;6305463;22;20202;-82
2023/12/15 01:16:32;;;;;;;8.50;2.60;;;;;;;;;;6304755;22;20206;-81
2023/12/15 01:18:59;;;;;;;6.73;2.20;;;;;;;;;;6305184;22;20671;-81
2023/12/15 01:21:26;;;;;;;6.50;2.00;;;;;;;;;;6304798;22;20538;-81
2023/12/15 01:23:54;;;;;;;5.50;2.00;;;;;;;;;;6304757;22;20208;-82
2023/12/15 01:26:21;;;;;;;8.07;2.37;;;;;;;;;;6304794;22;20632;-82
2023/12/15 01:28:48;;;;;;;5.67;2.20;;;;;;;;;;6305139;22;20553;-81
2023/12/15 01:31:17;;;;;;;5.97;2.20;;;;;;;;;;6304189;22;20579;-81
2023/12/15 01:33:44;;;;;;;4.73;1.87;;;;;;;;;;6304895;22;20208;-82
2023/12/15 01:36:11;;;;;;;6.67;2.37;;;;;;;;;;6305479;22;20256;-81
2023/12/15 01:38:38;;;;;;;9.43;2.10;;;;;;;;;;6305183;22;20197;-82
2023/12/15 01:41:06;;;;;;;7.57;2.30;;;;;;;;;;6304947;22;20245;-81
2023/12/15 01:43:33;;;;;;;6.17;3.20;;;;;;;;;;6304896;22;20197;-82
2023/12/15 01:46:00;;;;;;;9.37;4.10;;;;;;;;;;6305700;22;20285;-80
2023/12/15 01:48:31;;;;;;;13.43;4.40;;;;;;;;;;6306724;22;20197;-82
2023/12/15 01:50:58;;;;;;;10.37;4.50;;;;;;;;;;6306915;22;20193;-81
2023/12/15 01:53:25;;;;;;;7.47;3.70;;;;;;;;;;6306738;22;20244;-82
2023/12/15 01:55:52;;;;;;;8.33;3.93;;;;;;;;;;6306750;22;20256;-81
2023/12/15 01:58:19;;;;;;;10.67;3.70;;;;;;;;;;6306549;22;20173;-81
2023/12/15 02:00:47;;;;;;;8.20;2.77;;;;;;;;;;6306092;22;20281;-82
2023/12/15 02:03:15;;;;;;;6.20;2.23;;;;;;;;;;6307041;22;20181;-80
2023/12/15 02:05:44;;;;;;;8.60;1.87;;;;;;;;;;6306177;22;20520;-80
2023/12/15 02:08:11;;;;;;;4.20;1.90;;;;;;;;;;6306670;22;20514;-81
2023/12/15 02:10:38;;;;;;;5.80;1.80;;;;;;;;;;6306765;22;20181;-81
2023/12/15 02:13:06;;;;;;;7.63;1.80;;;;;;;;;;6306578;22;20189;-81
2023/12/15 02:15:34;;;;;;;6.33;1.73;;;;;;;;;;6306547;22;20197;-81
2023/12/15 02:18:02;;;;;;;6.30;1.90;;;;;;;;;;6306217;22;20205;-81
2023/12/15 02:20:29;;;;;;;6.33;1.93;;;;;;;;;;6306843;22;20165;-82
2023/12/15 02:22:59;;;;;;;9.97;1.70;;;;;;;;;;6306701;22;20201;-81
2023/12/15 02:25:26;;;;;;;7.60;1.70;;;;;;;;;;6305742;22;20611;-81
2023/12/15 02:27:53;;;;;;;9.20;2.10;;;;;;;;;;6306903;22;20276;-81
2023/12/15 02:30:21;;;;;;;8.97;2.00;;;;;;;;;;6306542;22;20198;-81
2023/12/15 02:32:48;;;;;;;8.43;1.80;;;;;;;;;;6306591;22;20197;-82
2023/12/15 02:35:16;;;;;;;7.07;2.00;;;;;;;;;;6306715;22;20166;-81
2023/12/15 02:37:43;;;;;;;8.53;1.97;;;;;;;;;;6306332;22;20248;-80
2023/12/15 02:40:13;;;;;;;6.43;1.70;;;;;;;;;;6306359;22;20205;-80
2023/12/15 02:42:40;;;;;;;7.70;2.10;;;;;;;;;;6305982;22;20190;-81
2023/12/15 02:45:08;;;;;;;9.00;2.00;;;;;;;;;;6306296;22;20600;-81
2023/12/15 02:47:35;;;;;;;8.93;1.87;;;;;;;;;;6305832;22;20162;-81
2023/12/15 02:50:02;;;;;;;5.90;2.00;;;;;;;;;;6305869;22;20198;-82
2023/12/15 02:52:29;;;;;;;7.53;2.17;;;;;;;;;;6306424;22;20166;-81
2023/12/15 02:54:56;;;;;;;5.47;1.80;;;;;;;;;;6306418;22;20676;-81
2023/12/15 02:57:25;;;;;;;9.33;2.40;;;;;;;;;;6305330;22;20223;-82
2023/12/15 02:59:52;;;;;;;5.80;2.17;;;;;;;;;;6305685;22;20198;-81
2023/12/15 03:02:20;;;;;;;7.83;2.30;;;;;;;;;;6305191;22;20200;-81
2023/12/15 03:04:47;;;;;;;10.73;2.37;;;;;;;;;;6306378;22;20197;-80
2023/12/15 03:07:14;;;;;;;10.57;2.87;;;;;;;;;;6305886;22;20208;-81
2023/12/15 03:09:41;;;;;;;8.80;2.73;;;;;;;;;;6305760;22;20193;-81
2023/12/15 03:12:08;;;;;;;11.37;3.40;;;;;;;;;;6305072;22;20197;-81
2023/12/15 03:14:37;;;;;;;10.17;3.50;;;;;;;;;;6305926;22;20197;-80
2023/12/15 03:17:04;;;;;;;13.40;3.97;;;;;;;;;;6306000;22;20190;-81
2023/12/15 03:19:31;;;;;;;10.57;3.83;;;;;;;;;;6305488;22;20654;-81
2023/12/15 03:21:58;;;;;;;13.60;4.83;;;;;;;;;;6306113;22;20201;-81
2023/12/15 03:24:26;;;;;;;10.20;5.00;;;;;;;;;;6305514;22;20249;-81
2023/12/15 03:26:53;;;;;;;12.47;5.40;;;;;;;;;;6305736;22;20193;-81
2023/12/15 03:29:21;;;;;;;11.33;4.47;;;;;;;;;;6305834;22;20193;-81
2023/12/15 03:31:49;;;;;;;9.83;4.77;;;;;;;;;;6305349;22;20166;-81
2023/12/15 03:34:16;;;;;;;8.87;3.93;;;;;;;;;;6305099;22;20687;-80
2023/12/15 03:36:44;;;;;;;12.27;3.97;;;;;;;;;;6305833;22;20549;-80
2023/12/15 03:39:11;;;;;;;12.83;3.67;;;;;;;;;;6305264;22;20288;-80
2023/12/15 03:41:38;;;;;;;8.83;3.20;;;;;;;;;;6305822;22;20200;-80
2023/12/15 03:44:05;;;;;;;8.60;3.33;;;;;;;;;;6305785;22;20216;-80
2023/12/15 03:46:32;;;;;;;4.77;2.63;;;;;;;;;;6305320;22;20730;-80
2023/12/15 03:49:01;;;;;;;7.53;3.10;;;;;;;;;;6305701;22;20201;-80
2023/12/15 03:51:28;;;;;;;7.33;2.80;;;;;;;;;;6304878;22;20170;-81
2023/12/15 03:53:55;;;;;;;7.10;3.17;;;;;;;;;;6305213;22;20651;-80
2023/12/15 03:56:26;;;;;;;11.17;6.13;;;;;;;;;;6305103;22;20170;-80
2023/12/15 03:58:53;;;;;;;16.23;6.73;;;;;;;;;;6305153;22;20170;-80
2023/12/15 04:01:20;;;;;;;14.60;6.80;;;;;;;;;;6304987;22;20193;-81
2023/12/15 04:03:47;;;;;;;12.50;6.37;;;;;;;;;;6304943;22;20261;-81
2023/12/15 04:06:16;;;;;;;10.93;6.57;;;;;;;;;;6304948;22;20280;-80
2023/12/15 04:08:43;;;;;;;13.20;7.17;;;;;;;;;;6305217;22;20252;-80
2023/12/15 04:11:10;;;;;;;13.43;7.00;;;;;;;;;;6304984;22;20197;-80
2023/12/15 04:13:37;;;;;;;15.60;7.57;;;;;;;;;;6305860;22;20197;-80
2023/12/15 04:16:06;;;;;;;12.87;7.33;;;;;;;;;;6305029;22;20568;-80
2023/12/15 04:18:33;;;;;;;15.67;7.93;;;;;;;;;;6305362;22;20166;-81
2023/12/15 04:21:02;;;;;;;18.13;7.77;;;;;;;;;;6304838;22;20636;-80
2023/12/15 04:23:31;;;;;;;15.40;7.30;;;;;;;;;;6305380;22;20180;-81
2023/12/15 04:25:58;;;;;;;13.13;5.80;;;;;;;;;;6304608;22;20671;-80
2023/12/15 04:28:26;;;;;;;14.43;6.37;;;;;;;;;;6305258;22;20647;-80
2023/12/15 04:30:53;;;;;;;13.23;5.80;;;;;;;;;;6304701;22;20655;-80
2023/12/15 04:33:20;;;;;;;15.27;5.90;;;;;;;;;;6305320;22;20248;-81
2023/12/15 04:35:47;;;;;;;11.90;5.17;;;;;;;;;;6304744;22;20253;-81
2023/12/15 04:38:14;;;;;;;15.77;4.63;;;;;;;;;;6305260;22;20189;-79
2023/12/15 04:40:43;;;;;;;13.47;4.97;;;;;;;;;;6304848;22;20256;-80
2023/12/15 04:43:10;;;;;;;11.00;5.10;;;;;;;;;;6305734;22;20565;-81
2023/12/15 04:45:37;;;;;;;14.60;4.70;;;;;;;;;;6304707;22;20276;-81
2023/12/15 04:48:05;;;;;;;12.00;4.27;;;;;;;;;;6304994;22;20201;-80
2023/12/15 04:50:32;;;;;;;12.77;4.43;;;;;;;;;;6304706;22;20253;-80
2023/12/15 04:52:59;;;;;;;14.13;4.93;;;;;;;;;;6304796;22;20197;-80
2023/12/15 04:55:26;;;;;;;10.50;4.40;;;;;;;;;;6305318;22;20194;-81
2023/12/15 04:57:55;;;;;;;10.67;4.37;;;;;;;;;;6304981;22;20204;-80
2023/12/15 05:00:22;;;;;;;9.57;4.07;;;;;;;;;;6304999;22;20221;-80
2023/12/15 05:02:49;;;;;;;14.17;4.67;;;;;;;;;;6305038;22;20204;-81
2023/12/15 05:05:18;;;;;;;14.07;4.40;;;;;;;;;;6304976;22;20576;-81
2023/12/15 05:07:45;;;;;;;18.17;4.60;;;;;;;;;;6303883;22;20628;-81
2023/12/15 05:10:12;;;;;;;16.83;4.83;;;;;;;;;;6305137;22;20190;-81
2023/12/15 05:12:39;;;;;;;16.00;4.40;;;;;;;;;;6304907;22;20201;-80
2023/12/15 05:15:08;;;;;;;16.03;4.60;;;;;;;;;;6305602;22;20250;-80
2023/12/15 05:17:36;;;;;;;13.03;4.27;;;;;;;;;;6304921;22;20200;-81
2023/12/15 05:20:03;;;;;;;12.20;3.90;;;;;;;;;;6305357;22;20245;-81
2023/12/15 05:22:30;;;;;;;14.93;4.57;;;;;;;;;;6306598;22;20170;-80
2023/12/15 05:24:57;;;;;;;14.23;4.03;;;;;;;;;;6307136;22;20249;-81
2023/12/15 05:27:24;;;;;;;18.07;4.23;;;;;;;;;;6307180;22;20198;-80
2023/12/15 05:29:51;;;;;;;16.10;4.07;;;;;;;;;;6306326;22;20244;-80
2023/12/15 05:32:20;;;;;;;21.10;4.63;;;;;;;;;;6306391;22;20212;-81
2023/12/15 05:34:47;;;;;;;11.03;4.13;;;;;;;;;;6307124;22;20530;-80
2023/12/15 05:37:14;;;;;;;15.23;4.10;;;;;;;;;;6306157;22;20643;-80
2023/12/15 05:39:44;;;;;;;13.87;4.40;;;;;;;;;;6307108;22;20177;-81
2023/12/15 05:42:11;;;;;;;15.30;4.10;;;;;;;;;;6306543;22;20173;-80
2023/12/15 05:44:39;;;;;;;14.73;4.20;;;;;;;;;;6307139;22;20162;-80
2023/12/15 05:47:06;;;;;;;12.67;3.80;;;;;;;;;;6307025;22;20232;-80
2023/12/15 05:49:35;;;;;;;14.80;4.00;;;;;;;;;;6306486;22;20249;-81
2023/12/15 05:52:02;;;;;;;11.97;3.23;;;;;;;;;;6306382;22;20225;-81
2023/12/15 05:54:29;;;;;;;14.70;3.80;;;;;;;;;;6306192;22;20194;-82
2023/12/15 05:56:56;;;;;;;9.30;3.43;;;;;;;;;;6306851;22;20185;-81
2023/12/15 05:59:24;;;;;;;10.17;3.10;;;;;;;;;;6305998;22;20170;-82
2023/12/15 06:01:51;;;;;;;12.17;3.17;;;;;;;;;;6306803;22;20249;-81
2023/12/15 06:04:18;;;;;;;14.80;3.83;;;;;;;;;;6306985;22;20221;-80
2023/12/15 06:06:46;;;;;;;11.40;3.77;;;;;;;;;;6306260;22;20280;-79
2023/12/15 06:09:14;;;;;;;12.00;2.87;;;;;;;;;;6306241;22;20258;-80
2023/12/15 06:11:41;;;;;;;20.63;3.63;;;;;;;;;;6307109;22;20253;-81
2023/12/15 06:14:08;;;;;;;18.90;3.47;;;;;;;;;;6305501;22;20177;-80
2023/12/15 06:16:36;;;;;;;18.80;3.27;;;;;;;;;;6306399;22;20551;-80
2023/12/15 06:19:03;;;;;;;15.03;3.10;;;;;;;;;;6306306;22;20181;-80
2023/12/15 06:21:30;;;;;;;17.93;3.33;;;;;;;;;;6305861;22;20165;-79
2023/12/15 06:23:59;;;;;;;15.33;3.37;;;;;;;;;;6305682;22;20192;-82
2023/12/15 06:26:27;;;;;;;17.67;2.97;;;;;;;;;;6306120;22;20236;-82
2023/12/15 06:28:54;;;;;;;17.17;3.10;;;;;;;;;;6306467;22;20268;-82
2023/12/15 06:31:22;;;;;;;16.23;3.27;;;;;;;;;;6306349;22;20197;-81
2023/12/15 06:33:49;;;;;;;13.27;3.23;;;;;;;;;;6306323;22;20197;-80
2023/12/15 06:36:16;;;;;;;18.57;3.03;;;;;;;;;;6305209;22;20194;-80
2023/12/15 06:38:45;;;;;;;24.00;3.10;;;;;;;;;;6306936;22;20165;-81
2023/12/15 06:41:14;;;;;;;12.37;2.70;;;;;;;;;;6304662;22;20170;-80
2023/12/15 06:43:41;;;;;;;19.10;3.27;;;;;;;;;;6305936;22;20249;-80
2023/12/15 06:46:08;;;;;;;23.93;3.17;;;;;;;;;;6304949;22;20284;-80
2023/12/15 06:48:36;;;;;;;21.30;3.53;;;;;;;;;;6306487;22;20201;-80
2023/12/15 06:51:03;;;;;;;15.23;2.73;;;;;;;;;;6305953;22;20204;-81
2023/12/15 06:53:31;;;;;;;19.13;3.27;;;;;;;;;;6304384;22;20650;-79
2023/12/15 06:55:58;;;;;;;20.07;3.37;;;;;;;;;;6306231;22;20248;-81
2023/12/15 06:58:27;;;;;;;18.27;3.23;;;;;;;;;;6306686;22;20200;-80
2023/12/15 07:00:54;;;;;;;14.57;3.00;;;;;;;;;;6305554;22;20244;-81
2023/12/15 07:03:21;;;;;;;15.93;2.90;;;;;;;;;;6305778;22;20172;-80
2023/12/15 07:05:48;;;;;;;13.50;2.67;;;;;;;;;;6305726;22;20181;-81
2023/12/15 07:08:16;;;;;;;17.97;3.73;;;;;;;;;;6306069;22;20253;-80
2023/12/15 07:10:43;;;;;;;15.40;2.87;;;;;;;;;;6306513;22;20189;-81
2023/12/15 07:13:10;;;;;;;21.00;3.50;;;;;;;;;;6305723;22;20515;-81
2023/12/15 07:15:38;;;;;;;15.57;3.27;;;;;;;;;;6305396;22;20249;-80
2023/12/15 07:18:06;;;;;;;17.63;3.30;;;;;;;;;;6305859;22;20162;-81
2023/12/15 07:20:33;;;;;;;18.93;2.97;;;;;;;;;;6305417;22;20711;-80
2023/12/15 07:23:00;;;;;;;17.93;3.40;;;;;;;;;;6305433;22;20249;-80
2023/12/15 07:25:27;;;;;;;12.53;2.60;;;;;;;;;;6305544;22;20256;-81
2023/12/15 07:27:54;;;;;;;15.80;2.77;;;;;;;;;;6305980;22;20205;-80
2023/12/15 07:30:21;;;;;;;18.63;3.20;;;;;;;;;;6306267;22;20532;-80
2023/12/15 07:32:50;;;;;;;15.13;3.00;;;;;;;;;;6305657;22;20196;-81
2023/12/15 07:35:17;;;;;;;12.87;3.37;;;;;;;;;;6305582;22;20201;-80
2023/12/15 07:37:44;;;;;;;18.40;3.73;;;;;;;;;;6305417;22;20197;-80
2023/12/15 07:40:12;;;;;;;17.70;3.33;;;;;;;;;;6305908;22;20213;-80
2023/12/15 07:42:39;;;;;;;18.70;3.17;;;;;;;;;;6306009;22;20205;-81
2023/12/15 07:45:07;;;;;;;15.17;3.30;;;;;;;;;;6305719;22;20245;-80
2023/12/15 07:47:34;;;;;;;19.30;3.33;;;;;;;;;;6304401;22;20197;-78
2023/12/15 07:50:03;;;;;;;17.80;3.53;;;;;;;;;;6305534;22;20193;-80
2023/12/15 07:52:30;;;;;;;18.87;3.50;;;;;;;;;;6304969;22;20170;-79
2023/12/15 07:54:57;;;;;;;13.17;3.00;;;;;;;;;;6305675;22;20197;-79
2023/12/15 07:57:24;;;;;;;11.37;2.70;;;;;;;;;;6305930;22;20234;-79
2023/12/15 07:59:52;;;;;;;16.40;3.60;;;;;;;;;;6305409;22;20197;-79
2023/12/15 08:02:21;;;;;;;11.33;3.00;;;;;;;;;;6305597;22;20170;-79
2023/12/15 08:04:48;;;;;;;19.93;3.43;;;;;;;;;;6305268;22;20200;-79
2023/12/15 08:07:17;;;;;;;10.10;3.43;;;;;;;;;;6305695;22;20229;-78
2023/12/15 08:09:44;;;;;;;18.37;3.67;;;;;;;;;;6305793;22;20197;-79
2023/12/15 08:12:12;;;;;;;19.00;3.97;;;;;;;;;;6305646;22;20206;-79
2023/12/15 08:14:39;;;;;;;19.07;4.57;;;;;;;;;;6305380;22;20679;-79
2023/12/15 08:17:06;;;;;;;16.57;3.47;;;;;;;;;;6305258;22;20253;-79
2023/12/15 08:19:33;;;;;;;17.17;3.00;;;;;;;;;;6305670;22;20252;-78
2023/12/15 08:22:00;;;;;;;15.77;3.33;;;;;;;;;;6305415;22;20201;-77
2023/12/15 08:24:29;;;;;;;17.77;3.00;;;;;;;;;;6305515;22;20166;-79
2023/12/15 08:26:57;;;;;;;19.53;3.00;;;;;;;;;;6305597;22;20663;-79
2023/12/15 08:29:24;;;;;;;15.80;3.07;;;;;;;;;;6305644;22;20170;-78
2023/12/15 08:31:52;;;;;;;21.10;4.20;;;;;;;;;;6304592;22;20252;-80
2023/12/15 08:34:19;;;;;;;21.57;3.53;;;;;;;;;;6305691;22;20245;-79
2023/12/15 08:36:46;;;;;;;14.70;3.37;;;;;;;;;;6305841;22;20223;-78
2023/12/15 08:39:13;;;;;;;15.73;3.57;;;;;;;;;;6305117;22;20177;-78
2023/12/15 08:41:42;;;;;;;17.03;3.47;;;;;;;;;;6304983;22;20169;-79
2023/12/15 08:44:09;;;;;;;16.33;3.17;;;;;;;;;;6305427;22;20507;-78
2023/12/15 08:46:36;;;;;;;16.43;3.10;;;;;;;;;;6304614;22;20739;-79
2023/12/15 08:49:04;;;;;;;15.80;3.47;;;;;;;;;;6305120;22;20205;-78
2023/12/15 08:51:31;;;;;;;21.67;4.07;;;;;;;;;;6305861;22;20166;-79
2023/12/15 08:53:58;;;;;;;20.30;5.17;;;;;;;;;;6305521;22;20202;-78
2023/12/15 08:56:25;;;;;;;17.97;4.53;;;;;;;;;;6306884;22;20248;-78
2023/12/15 08:58:54;;;;;;;19.80;4.43;;;;;;;;;;6307580;22;20170;-79
2023/12/15 09:01:21;;;;;;;19.00;4.90;;;;;;;;;;6306406;22;20202;-79
2023/12/15 09:03:48;;;;;;;23.00;4.03;;;;;;;;;;6306949;22;20655;-79
2023/12/15 09:06:16;;;;;;;16.17;3.37;;;;;;;;;;6307292;22;20283;-78
2023/12/15 09:08:43;;;;;;;14.30;3.80;;;;;;;;;;6308051;22;20185;-78
2023/12/15 09:11:11;;;;;;;19.20;4.87;;;;;;;;;;6307381;22;20215;-77
2023/12/15 09:13:39;;;;;;;15.77;4.20;;;;;;;;;;6307052;22;20508;-79
2023/12/15 09:16:07;;;;;;;16.03;3.70;;;;;;;;;;6306994;22;20208;-79
2023/12/15 09:18:34;;;;;;;14.80;3.63;;;;;;;;;;6307267;22;20194;-79
2023/12/15 09:21:01;;;;;;;13.17;2.80;;;;;;;;;;6307410;22;20201;-78
2023/12/15 09:23:29;;;;;;;21.57;3.57;;;;;;;;;;6307362;22;20169;-79
2023/12/15 09:25:56;;;;;;;15.20;4.00;;;;;;;;;;6307080;22;20197;-79
2023/12/15 09:28:23;;;;;;;23.50;4.20;;;;;;;;;;6307077;22;20240;-79
2023/12/15 09:30:50;;;;;;;14.73;3.23;;;;;;;;;;6307069;22;20170;-79
2023/12/15 09:33:19;;;;;;;14.03;3.53;;;;;;;;;;6307238;22;20170;-79
2023/12/15 09:35:46;;;;;;;14.67;3.23;;;;;;;;;;6306702;22;20198;-79
2023/12/15 09:38:13;;;;;;;11.33;3.03;;;;;;;;;;6306827;22;20628;-79
2023/12/15 09:40:41;;;;;;;15.40;3.30;;;;;;;;;;6306631;22;20177;-78
2023/12/15 09:43:08;;;;;;;13.60;3.07;;;;;;;;;;6306450;22;20209;-79
2023/12/15 09:45:35;;;;;;;11.40;3.30;;;;;;;;;;6307767;22;20249;-79
2023/12/15 09:48:04;;;;;;;13.67;3.73;;;;;;;;;;6306978;22;20237;-78
2023/12/15 09:50:34;;;;;;;19.13;3.73;;;;;;;;;;6307031;22;20526;-79
2023/12/15 09:53:02;;;;;;;11.27;3.67;;;;;;;;;;6306829;22;20166;-79
2023/12/15 09:55:30;;;;;;;15.67;3.63;;;;;;;;;;6306672;22;20166;-79
2023/12/15 09:57:58;;;;;;;13.83;3.83;;;;;;;;;;6306866;22;20189;-79
2023/12/15 10:00:25;;;;;;;13.77;3.97;;;;;;;;;;6305529;22;20709;-79
2023/12/15 10:02:52;;;;;;;15.17;4.53;;;;;;;;;;6304669;22;20205;-79
2023/12/15 10:05:20;;;;;;;20.77;4.87;;;;;;;;;;6303704;22;20177;-78
2023/12/15 10:07:49;;;;;;;12.43;3.67;;;;;;;;;;6304833;22;20205;-78
2023/12/15 10:10:16;;;;;;;14.13;3.57;;;;;;;;;;6305395;22;20170;-79
2023/12/15 10:12:43;;;;;;;12.13;2.60;;;;;;;;;;6304598;22;20684;-78
2023/12/15 10:15:11;;;;;;;13.60;2.87;;;;;;;;;;6305025;22;20193;-78
2023/12/15 10:17:39;;;;;;;13.70;2.80;;;;;;;;;;6304388;22;20719;-79
2023/12/15 10:20:07;;;;;;;12.53;2.67;;;;;;;;;;6304810;22;20521;-79
2023/12/15 10:22:34;;;;;;;15.30;3.50;;;;;;;;;;6305329;22;20173;-79
2023/12/15 10:25:03;;;;;;;11.70;3.63;;;;;;;;;;6304955;22;20262;-79
2023/12/15 10:27:30;;;;;;;13.20;3.67;;;;;;;;;;6304632;22;20201;-79
2023/12/15 10:29:57;;;;;;;16.10;2.73;;;;;;;;;;6304990;22;20253;-79
2023/12/15 10:32:26;;;;;;;11.97;2.97;;;;;;;;;;6305309;22;20189;-79
2023/12/15 10:34:53;;;;;;;14.73;2.97;;;;;;;;;;6305136;22;20166;-79
2023/12/15 10:37:21;;;;;;;21.63;3.77;;;;;;;;;;6304572;22;20235;-78
2023/12/15 10:39:48;;;;;;;12.77;2.60;;;;;;;;;;6304527;22;20197;-79
2023/12/15 10:42:17;;;;;;;11.60;3.00;;;;;;;;;;6304137;22;20197;-79
2023/12/15 10:44:44;;;;;;;14.93;3.47;;;;;;;;;;6304731;22;20592;-78
2023/12/15 10:47:12;;;;;;;13.63;2.97;;;;;;;;;;6304312;22;20239;-79
2023/12/15 10:49:39;;;;;;;17.60;2.90;;;;;;;;;;6305350;22;20215;-78
2023/12/15 10:52:07;;;;;;;13.47;3.13;;;;;;;;;;6304906;22;20204;-79
2023/12/15 10:54:37;;;;;;;19.07;3.47;;;;;;;;;;6304913;22;20201;-79
2023/12/15 10:57:04;;;;;;;11.83;2.87;;;;;;;;;;6304437;22;20166;-79
2023/12/15 10:59:32;;;;;;;9.30;2.73;;;;;;;;;;6257078;22;1085653;-78
2023/12/15 11:02:00;;;;;;;9.37;2.47;;;;;;;;;;6306282;22;20169;-79
2023/12/15 11:04:28;;;;;;;10.50;2.93;;;;;;;;;;6306331;22;20564;-77
2023/12/15 11:06:56;;;;;;;15.50;3.00;;;;;;;;;;6306394;22;20174;-79
2023/12/15 11:09:28;;;;;;;10.23;2.57;;;;;;;;;;6304940;22;20562;-78
2023/12/15 11:12:10;;;;;;;13.03;2.90;;;;;;;;;;6305307;22;20671;-78
2023/12/15 11:14:39;;;;;;;15.67;4.30;;;;;;;;;;6305638;22;20560;-78
2023/12/15 11:17:09;;;;;;;12.43;3.20;;;;;;;;;;6305596;22;20208;-77
2023/12/15 11:19:38;;;;;;;14.13;3.03;;;;;;;;;;6305611;22;20170;-78
2023/12/15 11:22:08;;;;;;;14.27;2.67;;;;;;;;;;6306189;22;20193;-77
2023/12/15 11:24:36;;;;;;;14.50;4.47;;;;;;;;;;6305221;22;20170;-78
2023/12/15 11:27:03;;;;;;;17.33;6.90;;;;;;;;;;6305563;22;20205;-77
2023/12/15 11:29:35;;;;;;;17.67;3.80;;;;;;;;;;6305643;22;20208;-78
2023/12/15 11:32:17;;;;;;;10.93;3.37;;;;;;;;;;6306399;22;20176;-77
2023/12/15 11:34:46;;;;;;;10.77;3.40;;;;;;;;;;6305181;22;20252;-77
2023/12/15 11:37:14;;;;;;;16.57;3.33;;;;;;;;;;6305596;22;20174;-77
2023/12/15 11:39:41;;;;;;;12.00;2.70;;;;;;;;;;6305923;22;20165;-77
2023/12/15 11:42:09;;;;;;;14.60;5.57;;;;;;;;;;6305760;22;20208;-77
2023/12/15 11:44:37;;;;;;;11.50;3.13;;;;;;;;;;6305600;22;20166;-78
2023/12/15 11:47:06;;;;;;;25.83;13.63;;;;;;;;;;6305566;22;20562;-78
2023/12/15 11:49:33;;;;;;;17.33;5.93;;;;;;;;;;6305726;22;20170;-78
2023/12/15 11:52:08;;;;;;;17.30;5.70;;;;;;;;;;6305241;22;20624;-76
2023/12/15 11:54:35;;;;;;;15.53;3.53;;;;;;;;;;6305089;22;20173;-77
2023/12/15 11:57:05;;;;;;;18.97;6.30;;;;;;;;;;6306107;22;20253;-76
2023/12/15 11:59:35;;;;;;;15.07;4.10;;;;;;;;;;6305129;22;20198;-78
2023/12/15 12:02:02;;;;;;;16.90;4.03;;;;;;;;;;6304861;22;20170;-77
2023/12/15 12:04:31;;;;;;;14.10;3.23;;;;;;;;;;6305590;22;20256;-79
2023/12/15 12:06:59;;;;;;;15.47;3.03;;;;;;;;;;6305929;22;20201;-78
2023/12/15 12:09:27;;;;;;;18.00;7.50;;;;;;;;;;6305079;22;20588;-78
2023/12/15 12:11:56;;;;;;;29.73;17.63;;;;;;;;;;6283837;22;20188;-78
2023/12/15 12:14:25;;;;;;;15.77;7.73;;;;;;;;;;6294410;22;20170;-78
2023/12/15 12:16:53;;;;;;;27.33;13.17;;;;;;;;;;6296893;22;20252;-79
2023/12/15 12:19:21;;;;;;;22.67;11.40;;;;;;;;;;6299221;22;20208;-79
2023/12/15 12:21:48;;;;;;;19.10;5.23;;;;;;;;;;6300746;22;20285;-78
2023/12/15 12:24:16;;;;;;;16.10;4.33;;;;;;;;;;6299118;22;20204;-78
2023/12/15 12:26:46;;;;;;;12.17;3.27;;;;;;;;;;6298594;22;20205;-79
2023/12/15 12:29:14;;;;;;;16.03;3.37;;;;;;;;;;6299527;22;20206;-80
2023/12/15 12:31:41;;;;;;;11.50;3.20;;;;;;;;;;6300034;22;20174;-79
2023/12/15 12:34:09;;;;;;;12.13;3.13;;;;;;;;;;6300733;22;20208;-79
2023/12/15 12:36:36;;;;;;;12.00;3.67;;;;;;;;;;6300182;22;20654;-79
2023/12/15 12:39:06;;;;;;;10.97;2.13;;;;;;;;;;6299795;22;20560;-78
2023/12/15 12:41:34;;;;;;;11.10;2.47;;;;;;;;;;6297119;22;20858;-82
2023/12/15 12:44:02;;;;;;;10.60;2.20;;;;;;;;;;6299228;22;20188;-79
2023/12/15 12:46:30;;;;;;;14.27;3.30;;;;;;;;;;6300701;22;20166;-80
2023/12/15 12:48:58;;;;;;;8.38;2.47;;;;;;;;;;6299848;22;20251;-79
2023/12/15 12:51:27;;;;;;;10.63;2.50;;;;;;;;;;6298131;22;20228;-78
2023/12/15 12:53:54;;;;;;;11.90;2.03;;;;;;;;;;6301377;22;20276;-79
2023/12/15 12:56:21;;;;;;;10.35;2.03;;;;;;;;;;6305036;22;20170;-80
2023/12/15 12:58:49;;;;;;;11.43;2.17;;;;;;;;;;6304597;22;20170;-79
2023/12/15 13:01:17;;;;;;;10.20;2.23;;;;;;;;;;6304054;22;20289;-80
2023/12/15 13:03:46;;;;;;;10.00;2.53;;;;;;;;;;6304562;22;20189;-79
2023/12/15 13:06:13;;;;;;;11.87;3.13;;;;;;;;;;6304765;22;20197;-78
2023/12/15 13:08:41;;;;;;;10.33;2.57;;;;;;;;;;6304983;22;20251;-79
2023/12/15 13:11:08;;;;;;;11.90;2.63;;;;;;;;;;6304223;22;20173;-81
2023/12/15 13:13:35;;;;;;;13.00;2.47;;;;;;;;;;6304367;22;20223;-80
2023/12/15 13:16:03;;;;;;;8.37;2.40;;;;;;;;;;6304482;22;20209;-81
2023/12/15 13:18:31;;;;;;;12.07;2.40;;;;;;;;;;6304321;22;20180;-80
2023/12/15 13:20:58;;;;;;;12.53;2.60;;;;;;;;;;6304313;22;20200;-81
2023/12/15 13:23:26;;;;;;;10.00;2.63;;;;;;;;;;6304049;22;20696;-81
2023/12/15 13:25:53;;;;;;;13.63;2.63;;;;;;;;;;6304764;22;20195;-80
2023/12/15 13:28:20;;;;;;;8.87;2.13;;;;;;;;;;6303692;22;20189;-81
2023/12/15 13:30:47;;;;;;;9.30;2.00;;;;;;;;;;6304698;22;20205;-79
2023/12/15 13:33:16;;;;;;;13.43;2.03;;;;;;;;;;6304420;22;20174;-80
2023/12/15 13:35:44;;;;;;;11.00;2.20;;;;;;;;;;6303994;22;20170;-79
2023/12/15 13:38:11;;;;;;;9.87;2.83;;;;;;;;;;6304756;22;20205;-78
2023/12/15 13:40:39;;;;;;;43.63;28.57;;;;;;;;;;6304305;22;20189;-79
2023/12/15 13:43:06;;;;;;;51.27;33.27;;;;;;;;;;6305932;22;20170;-80
2023/12/15 13:45:33;;;;;;;36.53;20.53;;;;;;;;;;6306607;22;20628;-79
2023/12/15 13:48:00;;;;;;;110.50;62.93;;;;;;;;;;6306720;22;20627;-79
2023/12/15 13:50:28;;;;;;;56.13;32.90;;;;;;;;;;6305318;22;20258;-80
2023/12/15 13:52:57;;;;;;;107.00;56.77;;;;;;;;;;6305759;22;20679;-81
2023/12/15 13:55:24;;;;;;;67.90;37.37;;;;;;;;;;6306218;22;20245;-80
2023/12/15 13:57:52;;;;;;;50.13;25.93;;;;;;;;;;6306364;22;20200;-81
2023/12/15 14:00:21;;;;;;;67.63;38.50;;;;;;;;;;6305593;22;20245;-80
2023/12/15 14:02:48;;;;;;;26.23;12.47;;;;;;;;;;6305825;22;20166;-79
2023/12/15 14:05:15;;;;;;;105.90;61.63;;;;;;;;;;6305415;22;20200;-79
2023/12/15 14:07:42;;;;;;;17.50;8.60;;;;;;;;;;6305827;22;20628;-78
2023/12/15 14:10:12;;;;;;;11.63;3.50;;;;;;;;;;6305314;22;20228;-79
2023/12/15 14:12:39;;;;;;;35.77;31.30;;;;;;;;;;6305566;22;20170;-81
2023/12/15 14:15:07;;;;;;;14.30;4.60;;;;;;;;;;6305458;22;20197;-80
2023/12/15 14:17:34;;;;;;;9.43;4.57;;;;;;;;;;6306047;22;20208;-81
2023/12/15 14:20:03;;;;;;;11.37;5.40;;;;;;;;;;6305459;22;20197;-80
2023/12/15 14:22:30;;;;;;;11.17;4.87;;;;;;;;;;6305769;22;20166;-81
2023/12/15 14:24:58;;;;;;;9.17;2.77;;;;;;;;;;6305668;22;20170;-81
2023/12/15 14:27:27;;;;;;;10.27;3.40;;;;;;;;;;6305848;22;20223;-78
2023/12/15 14:29:55;;;;;;;8.40;3.23;;;;;;;;;;6305976;22;20293;-81
2023/12/15 14:32:22;;;;;;;10.70;2.87;;;;;;;;;;6305970;22;20215;-79